Time;durP1;ratioP1;P1;durP2;ratioP2;P2;SDS_P1;SDS_P2;PMS_P1;PMS_P2;Temp;Humidity;BMP_temperature;BMP_pressure;BME280_temperature;BME280_humidity;BME280_pressure;Samples;Min_cycle;Max_cycle;Signal;HPM_P1;HPM_P2
2023/03/27 00:00:55;;;;;;;2.23;1.80;;;5.40;99.90;;;;;;5030536;28;20495;-54
2023/03/27 00:03:22;;;;;;;2.93;1.33;;;5.40;99.90;;;;;;5037746;28;20403;-54
2023/03/27 00:05:47;;;;;;;2.80;1.50;;;5.30;99.90;;;;;;5027909;28;20983;-55
2023/03/27 00:08:13;;;;;;;1.60;1.50;;;5.30;99.90;;;;;;5036177;28;20437;-56
2023/03/27 00:10:39;;;;;;;5.40;1.80;;;5.30;99.90;;;;;;5033192;28;20195;-55
2023/03/27 00:13:07;;;;;;;2.70;1.97;;;5.30;99.90;;;;;;5035056;28;20173;-56
2023/03/27 00:15:33;;;;;;;2.67;1.70;;;5.30;99.90;;;;;;5031152;28;20533;-56
2023/03/27 00:18:02;;;;;;;2.50;1.63;;;5.30;99.90;;;;;;5033100;28;20506;-55
2023/03/27 00:20:30;;;;;;;2.77;1.70;;;5.30;99.90;;;;;;5027621;28;20465;-56
2023/03/27 00:22:56;;;;;;;2.10;1.50;;;5.30;99.90;;;;;;5035560;28;20447;-54
2023/03/27 00:25:23;;;;;;;1.80;1.20;;;5.30;99.90;;;;;;5031744;28;20473;-54
2023/03/27 00:27:50;;;;;;;2.20;1.40;;;5.30;99.90;;;;;;5029415;28;20431;-55
2023/03/27 00:30:16;;;;;;;2.53;1.60;;;5.40;99.90;;;;;;5033605;28;20430;-56
2023/03/27 00:32:42;;;;;;;2.87;1.30;;;5.40;99.90;;;;;;5027111;28;20426;-54
2023/03/27 00:35:08;;;;;;;2.03;1.80;;;5.30;99.90;;;;;;5031053;28;20442;-57
2023/03/27 00:37:35;;;;;;;2.00;1.33;;;5.30;99.90;;;;;;5035460;28;20434;-55
2023/03/27 00:40:02;;;;;;;1.90;1.33;;;5.40;99.90;;;;;;5027219;28;20407;-56
2023/03/27 00:42:27;;;;;;;1.67;1.17;;;5.30;99.90;;;;;;5031209;28;20430;-54
2023/03/27 00:44:53;;;;;;;3.80;1.53;;;5.30;99.90;;;;;;5028423;28;20446;-55
2023/03/27 00:47:32;;;;;;;1.03;0.93;;;5.30;99.90;;;;;;5026481;28;20164;-55
2023/03/27 00:50:00;;;;;;;1.27;1.17;;;5.30;99.90;;;;;;5030141;28;20186;-55
2023/03/27 00:52:28;;;;;;;1.80;1.10;;;5.30;99.90;;;;;;5029832;28;20472;-55
2023/03/27 00:54:59;;;;;;;3.07;1.30;;;5.30;99.90;;;;;;5035309;28;20476;-55
2023/03/27 00:57:25;;;;;;;1.00;0.90;;;5.20;99.90;;;;;;5028681;28;20452;-54
2023/03/27 00:59:53;;;;;;;1.00;1.00;;;5.20;99.90;;;;;;5024290;28;20431;-54
2023/03/27 01:02:20;;;;;;;2.87;1.07;;;5.20;99.90;;;;;;5029001;28;20255;-55
2023/03/27 01:04:47;;;;;;;4.30;1.53;;;5.10;99.90;;;;;;5032761;28;20457;-56
2023/03/27 01:07:14;;;;;;;1.30;1.10;;;5.10;99.90;;;;;;5031028;28;20508;-54
2023/03/27 01:09:40;;;;;;;1.10;1.07;;;5.10;99.90;;;;;;5034295;28;20416;-58
2023/03/27 01:12:34;;;;;;;0.90;0.90;;;5.10;99.90;;;;;;5032498;28;20469;-55
2023/03/27 01:15:07;;;;;;;2.00;1.00;;;5.10;99.90;;;;;;5031987;28;20199;-56
2023/03/27 01:18:20;;;;;;;4.03;1.10;;;5.00;99.90;;;;;;5029051;28;20528;-55
2023/03/27 01:20:52;;;;;;;1.27;1.10;;;5.00;99.90;;;;;;5028999;28;20521;-54
2023/03/27 01:23:27;;;;;;;1.93;1.20;;;5.00;99.90;;;;;;5035651;28;20461;-55
2023/03/27 01:26:11;;;;;;;2.27;1.10;;;5.00;99.90;;;;;;5032622;28;20488;-54
2023/03/27 01:28:53;;;;;;;1.10;1.10;;;5.10;99.90;;;;;;5035458;28;20430;-56
2023/03/27 01:31:32;;;;;;;1.33;0.93;;;5.10;99.90;;;;;;5034098;28;20479;-53
2023/03/27 01:34:23;;;;;;;1.00;1.00;;;5.00;99.90;;;;;;5029950;28;20450;-55
2023/03/27 01:37:05;;;;;;;1.00;1.00;;;5.00;99.90;;;;;;5031265;28;20512;-55
2023/03/27 01:39:55;;;;;;;0.80;0.80;;;5.10;99.90;;;;;;5027646;28;20422;-55
2023/03/27 01:42:24;;;;;;;1.23;1.10;;;5.10;99.90;;;;;;5028107;28;20458;-55
2023/03/27 01:45:14;;;;;;;1.43;0.80;;;5.10;99.90;;;;;;5028943;28;20477;-56
2023/03/27 01:48:20;;;;;;;1.83;0.83;;;5.10;99.90;;;;;;5027551;28;20446;-54
2023/03/27 01:51:08;;;;;;;1.77;0.90;;;5.10;99.90;;;;;;5066937;28;20490;-54
2023/03/27 01:53:39;;;;;;;1.10;1.00;;;5.10;99.90;;;;;;5027867;28;20450;-57
2023/03/27 01:56:07;;;;;;;0.90;0.90;;;5.10;99.90;;;;;;5033809;28;20469;-55
2023/03/27 01:58:41;;;;;;;0.90;0.90;;;5.10;99.90;;;;;;5031106;28;20454;-56
2023/03/27 02:01:09;;;;;;;0.90;0.90;;;5.10;99.90;;;;;;5031028;28;20438;-54
2023/03/27 02:03:42;;;;;;;0.93;0.93;;;5.00;99.90;;;;;;5031755;28;20430;-54
2023/03/27 02:06:20;;;;;;;1.00;1.00;;;5.10;99.90;;;;;;5034123;28;20442;-54
2023/03/27 02:09:03;;;;;;;0.90;0.90;;;5.10;99.90;;;;;;5036266;28;20444;-54
2023/03/27 02:11:40;;;;;;;1.10;1.00;;;5.10;99.90;;;;;;5033998;28;20988;-55
2023/03/27 02:14:11;;;;;;;0.80;0.80;;;5.10;99.90;;;;;;5034431;28;20430;-55
2023/03/27 02:16:44;;;;;;;0.80;0.80;;;5.10;99.90;;;;;;5029017;28;20440;-56
2023/03/27 02:19:19;;;;;;;0.90;0.90;;;5.10;99.90;;;;;;5031312;28;20587;-55
2023/03/27 02:21:46;;;;;;;0.93;0.93;;;5.10;99.90;;;;;;5036837;28;20480;-54
2023/03/27 02:24:17;;;;;;;0.90;0.90;;;5.10;99.90;;;;;;5039130;28;20476;-54
2023/03/27 02:26:44;;;;;;;0.90;0.90;;;5.10;99.90;;;;;;5037976;28;20437;-54
2023/03/27 02:29:43;;;;;;;1.47;0.83;;;5.10;99.90;;;;;;5027537;28;20528;-56
2023/03/27 02:32:09;;;;;;;0.80;0.80;;;5.10;99.90;;;;;;5026926;28;20642;-55
2023/03/27 02:34:57;;;;;;;0.80;0.80;;;5.00;99.90;;;;;;5033002;28;20564;-55
2023/03/27 02:37:39;;;;;;;1.00;1.00;;;5.00;99.90;;;;;;5036628;28;20176;-56
2023/03/27 02:40:30;;;;;;;0.80;0.80;;;5.00;99.90;;;;;;5031931;28;20430;-54
2023/03/27 02:42:58;;;;;;;0.80;0.80;;;5.00;99.90;;;;;;5037563;28;20434;-56
2023/03/27 02:45:33;;;;;;;0.80;0.80;;;4.90;99.90;;;;;;5036271;28;20514;-55
2023/03/27 02:48:28;;;;;;;0.83;0.83;;;4.90;99.90;;;;;;5037096;28;20432;-55
2023/03/27 02:51:11;;;;;;;0.93;0.90;;;4.90;99.90;;;;;;5035477;28;20466;-56
2023/03/27 02:53:50;;;;;;;1.00;1.00;;;4.80;99.90;;;;;;5036123;28;20437;-55
2023/03/27 02:56:21;;;;;;;0.80;0.80;;;4.90;99.90;;;;;;5031874;28;20469;-55
2023/03/27 02:58:56;;;;;;;0.80;0.80;;;4.90;99.90;;;;;;5036180;28;20422;-56
2023/03/27 03:01:25;;;;;;;0.87;0.80;;;4.90;99.90;;;;;;5034897;28;20958;-54
2023/03/27 03:04:02;;;;;;;0.90;0.90;;;4.90;99.90;;;;;;5037721;28;20571;-54
2023/03/27 03:06:30;;;;;;;0.80;0.80;;;4.80;99.90;;;;;;5031451;28;20572;-55
2023/03/27 03:09:03;;;;;;;0.90;0.90;;;4.80;99.90;;;;;;5033865;28;20923;-55
2023/03/27 03:11:29;;;;;;;0.90;0.90;;;4.80;99.90;;;;;;5032809;28;20466;-54
2023/03/27 03:13:55;;;;;;;0.80;0.80;;;4.80;99.90;;;;;;5033051;28;20423;-56
2023/03/27 03:16:21;;;;;;;0.83;0.83;;;4.80;99.90;;;;;;5030700;28;21169;-56
2023/03/27 03:18:48;;;;;;;1.07;1.03;;;4.80;99.90;;;;;;5027218;28;20231;-56
2023/03/27 03:21:14;;;;;;;1.00;0.90;;;4.80;99.90;;;;;;5031005;28;20462;-55
2023/03/27 03:23:39;;;;;;;1.00;1.00;;;4.80;99.90;;;;;;5035764;28;20802;-58
2023/03/27 03:26:06;;;;;;;1.10;1.10;;;4.80;99.90;;;;;;5035854;28;20683;-55
2023/03/27 03:28:35;;;;;;;1.57;1.47;;;4.80;99.90;;;;;;5029852;28;20179;-55
2023/03/27 03:31:04;;;;;;;0.93;0.93;;;4.80;99.90;;;;;;5030940;28;20478;-55
2023/03/27 03:33:30;;;;;;;1.30;1.20;;;4.70;99.90;;;;;;5032263;28;20430;-55
2023/03/27 03:35:59;;;;;;;1.10;0.97;;;4.70;99.90;;;;;;5025296;28;20446;-55
2023/03/27 03:38:28;;;;;;;1.27;1.17;;;4.70;99.90;;;;;;5035803;28;20429;-54
2023/03/27 03:40:55;;;;;;;1.20;1.10;;;4.70;99.90;;;;;;5030774;28;20469;-54
2023/03/27 03:43:23;;;;;;;1.27;1.17;;;4.70;99.90;;;;;;5024960;28;20493;-55
2023/03/27 03:45:49;;;;;;;0.90;0.90;;;4.60;99.90;;;;;;5033387;28;20483;-55
2023/03/27 03:48:15;;;;;;;1.63;1.40;;;4.60;99.90;;;;;;5027533;28;20423;-57
2023/03/27 03:50:42;;;;;;;1.20;1.20;;;4.60;99.90;;;;;;5033829;28;20506;-55
2023/03/27 03:53:08;;;;;;;1.67;1.57;;;4.60;99.90;;;;;;5025895;28;20431;-52
2023/03/27 03:55:33;;;;;;;1.27;1.17;;;4.60;99.90;;;;;;5019591;28;20512;-50
2023/03/27 03:57:59;;;;;;;1.33;1.23;;;4.60;99.90;;;;;;5035673;28;20194;-53
2023/03/27 04:00:27;;;;;;;1.20;1.10;;;4.50;99.90;;;;;;5034376;28;20262;-57
2023/03/27 04:02:53;;;;;;;1.20;1.10;;;4.50;99.90;;;;;;5022743;28;20183;-55
2023/03/27 04:05:22;;;;;;;1.00;1.00;;;4.50;99.90;;;;;;5027097;28;20465;-56
2023/03/27 04:07:48;;;;;;;1.67;1.57;;;4.50;99.90;;;;;;5019649;28;20457;-51
2023/03/27 04:10:14;;;;;;;1.57;1.47;;;4.50;99.90;;;;;;5018762;28;20427;-52
2023/03/27 04:12:48;;;;;;;1.60;1.50;;;4.50;99.90;;;;;;5024756;28;20459;-57
2023/03/27 04:15:15;;;;;;;2.30;1.37;;;4.40;99.90;;;;;;5023156;28;20604;-52
2023/03/27 04:17:41;;;;;;;1.77;1.67;;;4.40;99.90;;;;;;5009616;28;20423;-55
2023/03/27 04:20:07;;;;;;;3.50;1.70;;;4.40;99.90;;;;;;5021442;28;20427;-56
2023/03/27 04:22:36;;;;;;;3.90;2.60;;;4.40;99.90;;;;;;5014419;28;20454;-55
2023/03/27 04:25:04;;;;;;;3.13;2.53;;;4.40;99.90;;;;;;5018043;28;20463;-56
2023/03/27 04:27:30;;;;;;;3.80;2.43;;;4.30;99.90;;;;;;5015965;28;20561;-56
2023/03/27 04:29:56;;;;;;;7.20;3.70;;;4.30;99.90;;;;;;5012019;28;20446;-57
2023/03/27 04:32:25;;;;;;;5.43;3.43;;;4.30;99.90;;;;;;5006860;28;20473;-56
2023/03/27 04:34:52;;;;;;;4.13;3.30;;;4.20;99.90;;;;;;5001761;28;20279;-56
2023/03/27 04:37:18;;;;;;;4.93;3.93;;;4.20;99.90;;;;;;5007113;28;20430;-56
2023/03/27 04:39:45;;;;;;;5.87;3.80;;;4.10;99.90;;;;;;5009650;28;20433;-56
2023/03/27 04:42:11;;;;;;;6.13;3.80;;;4.10;99.90;;;;;;5010461;28;20198;-56
2023/03/27 04:44:37;;;;;;;13.50;5.77;;;4.10;99.90;;;;;;5012638;28;20549;-54
2023/03/27 04:47:07;;;;;;;9.70;4.03;;;4.10;99.90;;;;;;5016543;28;21108;-56
2023/03/27 04:49:41;;;;;;;5.50;3.87;;;4.20;99.90;;;;;;5012568;28;20445;-56
2023/03/27 04:52:07;;;;;;;6.90;3.70;;;4.20;99.90;;;;;;5020573;28;20454;-56
2023/03/27 04:54:33;;;;;;;7.30;4.20;;;4.20;99.90;;;;;;5018430;28;20438;-56
2023/03/27 04:57:02;;;;;;;6.40;4.10;;;4.10;99.90;;;;;;5018532;28;20427;-57
2023/03/27 04:59:30;;;;;;;5.50;4.00;;;4.00;99.90;;;;;;5008253;28;20432;-56
2023/03/27 05:01:57;;;;;;;9.47;4.37;;;4.00;99.90;;;;;;5021593;28;20926;-56
2023/03/27 05:04:26;;;;;;;10.00;4.27;;;4.00;99.90;;;;;;5016616;28;20936;-56
2023/03/27 05:06:52;;;;;;;5.50;3.70;;;3.90;99.90;;;;;;5017682;28;20434;-55
2023/03/27 05:09:19;;;;;;;6.40;4.23;;;3.90;99.90;;;;;;5012361;28;20554;-57
2023/03/27 05:11:48;;;;;;;7.80;4.60;;;3.80;99.90;;;;;;5017408;28;20462;-56
2023/03/27 05:14:18;;;;;;;8.47;4.70;;;3.80;99.90;;;;;;5027505;28;20442;-55
2023/03/27 05:16:43;;;;;;;8.80;3.80;;;3.80;99.90;;;;;;5020364;28;20424;-56
2023/03/27 05:19:10;;;;;;;10.73;3.53;;;3.80;99.90;;;;;;5027082;28;20426;-57
2023/03/27 05:21:36;;;;;;;9.63;3.93;;;3.70;99.90;;;;;;5008910;28;20245;-57
2023/03/27 05:24:02;;;;;;;8.47;4.63;;;3.70;99.90;;;;;;5022537;28;20996;-56
2023/03/27 05:26:28;;;;;;;7.53;3.83;;;3.60;99.90;;;;;;5023921;28;20447;-58
2023/03/27 05:28:54;;;;;;;6.03;3.80;;;3.50;99.90;;;;;;5025904;28;20974;-58
2023/03/27 05:31:24;;;;;;;6.07;3.53;;;3.50;99.90;;;;;;5023694;28;20687;-58
2023/03/27 05:33:51;;;;;;;3.93;3.50;;;3.50;99.90;;;;;;5026752;28;20458;-57
2023/03/27 05:36:17;;;;;;;5.13;3.27;;;3.50;99.90;;;;;;5024991;28;20477;-58
2023/03/27 05:38:43;;;;;;;5.40;3.40;;;3.40;99.90;;;;;;5023159;28;20427;-58
2023/03/27 05:41:09;;;;;;;3.57;2.93;;;3.40;99.90;;;;;;5018750;28;20500;-57
2023/03/27 05:43:35;;;;;;;4.27;2.60;;;3.40;99.90;;;;;;5026727;28;20183;-58
2023/03/27 05:46:01;;;;;;;3.23;2.57;;;3.30;99.90;;;;;;5020312;28;20879;-57
2023/03/27 05:48:27;;;;;;;1.87;1.77;;;3.30;99.90;;;;;;5025804;28;20426;-57
2023/03/27 05:50:53;;;;;;;1.73;1.63;;;3.30;99.90;;;;;;5023117;28;20527;-56
2023/03/27 05:53:19;;;;;;;1.90;1.67;;;3.20;99.90;;;;;;5025101;28;20422;-57
2023/03/27 05:55:44;;;;;;;3.20;1.90;;;3.20;99.90;;;;;;5023778;28;20200;-57
2023/03/27 05:58:12;;;;;;;2.17;1.97;;;3.20;99.90;;;;;;5025431;28;20259;-57
2023/03/27 06:00:40;;;;;;;2.33;2.10;;;3.20;99.90;;;;;;5021154;28;20173;-56
2023/03/27 06:03:06;;;;;;;2.23;2.03;;;3.20;99.90;;;;;;5027225;28;20433;-56
2023/03/27 06:05:32;;;;;;;2.87;2.13;;;3.10;99.90;;;;;;5027337;28;20457;-57
2023/03/27 06:07:58;;;;;;;1.77;1.67;;;3.10;99.90;;;;;;5025651;28;20492;-58
2023/03/27 06:10:26;;;;;;;3.70;2.27;;;3.10;99.90;;;;;;5022241;28;20442;-58
2023/03/27 06:13:03;;;;;;;1.50;1.40;;;3.10;99.90;;;;;;5023800;28;20206;-55
2023/03/27 06:15:29;;;;;;;1.57;1.40;;;3.10;99.90;;;;;;5021546;28;20537;-56
2023/03/27 06:17:55;;;;;;;2.10;1.63;;;2.90;99.90;;;;;;5020460;28;20426;-56
2023/03/27 06:20:21;;;;;;;4.70;1.80;;;2.90;99.90;;;;;;5023683;28;20429;-57
2023/03/27 06:22:48;;;;;;;3.67;2.00;;;2.70;99.90;;;;;;5028311;28;20755;-57
2023/03/27 06:25:14;;;;;;;4.47;2.03;;;2.60;99.90;;;;;;5021105;28;20195;-56
2023/03/27 06:27:45;;;;;;;3.87;2.30;;;2.50;99.90;;;;;;5020057;28;20923;-57
2023/03/27 06:30:12;;;;;;;5.37;2.43;;;2.40;99.90;;;;;;5026759;28;20438;-56
2023/03/27 06:32:44;;;;;;;5.67;2.50;;;2.30;99.90;;;;;;5020886;28;20469;-56
2023/03/27 06:35:10;;;;;;;4.20;2.47;;;2.30;99.90;;;;;;5017715;28;20453;-56
2023/03/27 06:37:35;;;;;;;4.67;2.27;;;2.30;99.90;;;;;;5024906;28;20429;-57
2023/03/27 06:40:02;;;;;;;5.03;2.20;;;2.30;99.90;;;;;;5027462;28;20522;-56
2023/03/27 06:42:28;;;;;;;6.03;2.53;;;2.20;99.90;;;;;;5021959;28;20180;-57
2023/03/27 06:44:54;;;;;;;8.80;2.90;;;2.20;99.90;;;;;;5020243;28;20484;-56
2023/03/27 06:47:19;;;;;;;9.70;2.47;;;2.20;99.90;;;;;;5024315;28;20228;-56
2023/03/27 06:49:46;;;;;;;9.80;2.87;;;2.20;99.90;;;;;;5019387;28;20273;-57
2023/03/27 06:52:13;;;;;;;5.80;3.23;;;2.20;99.90;;;;;;5023348;28;20204;-56
2023/03/27 06:54:39;;;;;;;7.90;2.90;;;2.10;99.90;;;;;;5022841;28;20430;-56
2023/03/27 06:57:05;;;;;;;11.97;2.80;;;2.10;99.90;;;;;;5020539;28;21182;-57
2023/03/27 06:59:30;;;;;;;10.17;3.00;;;2.10;99.90;;;;;;5023349;28;20667;-57
2023/03/27 07:01:56;;;;;;;11.60;3.60;;;2.10;99.90;;;;;;5020245;28;20434;-57
2023/03/27 07:04:22;;;;;;;9.27;2.60;;;2.20;99.90;;;;;;5029379;28;20283;-56
2023/03/27 07:06:49;;;;;;;10.40;2.80;;;2.20;99.90;;;;;;5030199;28;20253;-56
2023/03/27 07:09:14;;;;;;;10.23;2.83;;;2.20;99.90;;;;;;5026891;28;20262;-59
2023/03/27 07:11:40;;;;;;;11.17;3.63;;;2.20;99.90;;;;;;5018705;28;20569;-55
2023/03/27 07:14:06;;;;;;;7.37;3.70;;;2.30;99.90;;;;;;5018505;28;20195;-56
2023/03/27 07:16:31;;;;;;;5.03;3.63;;;2.40;99.90;;;;;;5024600;28;20702;-57
2023/03/27 07:18:57;;;;;;;9.00;2.90;;;2.40;99.90;;;;;;5025665;28;20183;-55
2023/03/27 07:21:23;;;;;;;8.53;3.67;;;2.40;99.90;;;;;;5018183;28;20300;-58
2023/03/27 07:23:48;;;;;;;10.57;3.67;;;2.40;99.90;;;;;;5015273;28;20286;-56
2023/03/27 07:26:14;;;;;;;9.57;3.30;;;2.40;99.90;;;;;;5025954;28;20283;-55
2023/03/27 07:28:41;;;;;;;13.83;2.90;;;2.40;99.90;;;;;;5014583;28;20184;-56
2023/03/27 07:31:12;;;;;;;12.57;3.33;;;2.40;99.90;;;;;;5027328;28;20469;-56
2023/03/27 07:33:38;;;;;;;11.13;3.47;;;2.50;99.90;;;;;;5025215;28;20441;-57
2023/03/27 07:36:08;;;;;;;10.10;3.20;;;2.50;99.90;;;;;;5018737;28;20458;-57
2023/03/27 07:38:34;;;;;;;11.10;3.30;;;2.60;99.90;;;;;;5023652;28;20448;-56
2023/03/27 07:41:05;;;;;;;6.37;3.33;;;2.70;98.90;;;;;;5030864;28;20964;-55
2023/03/27 07:43:33;;;;;;;8.70;2.70;;;2.80;99.90;;;;;;5021939;28;20426;-55
2023/03/27 07:45:59;;;;;;;13.73;3.00;;;2.80;99.90;;;;;;5017645;28;20462;-55
2023/03/27 07:48:26;;;;;;;3.20;2.70;;;2.80;99.90;;;;;;5029148;28;21044;-56
2023/03/27 07:50:57;;;;;;;8.83;3.03;;;2.90;99.90;;;;;;5025486;28;20440;-57
2023/03/27 07:53:24;;;;;;;5.93;3.10;;;2.90;99.50;;;;;;5029173;28;20446;-56
2023/03/27 07:55:51;;;;;;;7.80;3.33;;;3.00;99.90;;;;;;5025990;28;20485;-57
2023/03/27 07:58:20;;;;;;;10.53;3.37;;;3.10;99.90;;;;;;5025578;28;20915;-56
2023/03/27 08:00:50;;;;;;;9.03;2.53;;;3.20;98.20;;;;;;5027850;28;20419;-57
2023/03/27 08:03:16;;;;;;;4.80;2.73;;;3.20;94.40;;;;;;5018678;28;20794;-57
2023/03/27 08:05:42;;;;;;;8.03;3.23;;;3.30;91.80;;;;;;5025981;28;20450;-57
2023/03/27 08:08:08;;;;;;;5.60;2.83;;;3.40;93.50;;;;;;5030239;28;20506;-57
2023/03/27 08:10:34;;;;;;;8.13;3.30;;;3.50;92.60;;;;;;5022684;28;20214;-56
2023/03/27 08:13:00;;;;;;;11.27;2.70;;;3.60;91.70;;;;;;5025576;28;20493;-56
2023/03/27 08:15:25;;;;;;;11.93;2.83;;;3.60;80.70;;;;;;5022867;28;20235;-56
2023/03/27 08:17:53;;;;;;;6.10;2.53;;;3.50;79.30;;;;;;5020892;28;20179;-56
2023/03/27 08:20:20;;;;;;;4.93;2.50;;;3.50;80.50;;;;;;5013690;28;20832;-56
2023/03/27 08:22:45;;;;;;;11.03;3.07;;;3.50;78.10;;;;;;5014982;28;20439;-58
2023/03/27 08:25:11;;;;;;;8.87;2.90;;;3.40;76.30;;;;;;5022019;28;20457;-56
2023/03/27 08:27:37;;;;;;;6.90;3.00;;;3.50;79.50;;;;;;5023474;28;20669;-56
2023/03/27 08:30:03;;;;;;;9.23;2.70;;;3.50;78.00;;;;;;5017230;28;20713;-58
2023/03/27 08:32:30;;;;;;;8.40;2.27;;;3.60;69.30;;;;;;5020458;28;20214;-57
2023/03/27 08:34:56;;;;;;;5.73;2.30;;;3.60;68.10;;;;;;5025634;28;20536;-56
2023/03/27 08:37:22;;;;;;;7.47;2.10;;;3.60;65.60;;;;;;5022190;28;20493;-56
2023/03/27 08:39:47;;;;;;;6.67;1.93;;;3.60;64.50;;;;;;5027697;28;20183;-56
2023/03/27 08:42:17;;;;;;;4.00;2.50;;;3.60;66.20;;;;;;5032178;28;20433;-56
2023/03/27 08:44:43;;;;;;;9.70;3.40;;;3.60;66.60;;;;;;5019805;28;20674;-56
2023/03/27 08:47:17;;;;;;;5.53;2.30;;;3.80;68.90;;;;;;5025459;28;20520;-55
2023/03/27 08:49:56;;;;;;;4.73;2.60;;;3.80;68.10;;;;;;5026002;28;20435;-56
2023/03/27 08:52:24;;;;;;;8.13;2.87;;;3.90;66.40;;;;;;5020258;28;20819;-56
2023/03/27 08:54:57;;;;;;;7.67;3.13;;;3.90;65.20;;;;;;5022596;28;20490;-57
2023/03/27 08:57:27;;;;;;;5.90;2.20;;;3.90;63.70;;;;;;5019508;28;20485;-55
2023/03/27 08:59:57;;;;;;;4.67;2.57;;;3.90;62.90;;;;;;5021014;28;20976;-55
2023/03/27 09:02:37;;;;;;;5.37;2.30;;;3.90;60.20;;;;;;5025150;28;20468;-56
2023/03/27 09:05:16;;;;;;;6.70;2.63;;;3.80;61.20;;;;;;5022770;28;20446;-57
2023/03/27 09:07:48;;;;;;;7.80;2.70;;;3.80;63.20;;;;;;5008528;28;20885;-53
2023/03/27 09:10:33;;;;;;;4.80;2.20;;;4.00;63.70;;;;;;5017696;28;20464;-54
2023/03/27 09:13:12;;;;;;;7.03;2.90;;;4.20;64.40;;;;;;5025739;28;20512;-56
2023/03/27 09:16:01;;;;;;;4.17;2.50;;;4.40;63.20;;;;;;5026145;28;20442;-55
2023/03/27 09:18:55;;;;;;;6.10;2.40;;;4.70;63.20;;;;;;5025778;28;20485;-59
2023/03/27 09:21:41;;;;;;;6.37;2.47;;;4.90;62.70;;;;;;5018518;28;20442;-53
2023/03/27 09:24:32;;;;;;;4.83;2.10;;;4.90;60.70;;;;;;5025189;28;20444;-57
2023/03/27 09:27:10;;;;;;;5.47;2.60;;;4.70;58.50;;;;;;5030466;28;20430;-52
2023/03/27 09:29:40;;;;;;;5.47;2.27;;;4.50;58.40;;;;;;5022389;28;20434;-55
2023/03/27 09:32:14;;;;;;;2.33;2.00;;;4.40;57.60;;;;;;5023264;28;20454;-48
2023/03/27 09:34:40;;;;;;;8.20;2.90;;;4.50;57.50;;;;;;5019075;28;20950;-49
2023/03/27 09:37:13;;;;;;;6.73;2.60;;;4.60;58.70;;;;;;5020364;28;20435;-49
2023/03/27 09:39:44;;;;;;;3.13;2.00;;;4.90;59.10;;;;;;5018110;28;20949;-56
2023/03/27 09:42:34;;;;;;;7.80;2.47;;;5.10;58.10;;;;;;5020675;28;20930;-54
2023/03/27 09:45:03;;;;;;;3.57;2.07;;;5.30;57.90;;;;;;5029382;28;20453;-53
2023/03/27 09:47:38;;;;;;;12.07;2.70;;;5.50;58.30;;;;;;5020433;28;20439;-54
2023/03/27 09:50:32;;;;;;;2.90;2.27;;;5.70;58.60;;;;;;5025919;28;20456;-54
2023/03/27 09:53:11;;;;;;;9.07;2.60;;;5.60;55.70;;;;;;5025098;28;20596;-53
2023/03/27 09:55:54;;;;;;;7.07;2.27;;;5.40;55.90;;;;;;5015562;28;20467;-53
2023/03/27 09:58:35;;;;;;;7.93;3.47;;;5.20;55.40;;;;;;5029622;28;20951;-53
2023/03/27 10:01:29;;;;;;;6.60;2.40;;;5.00;56.50;;;;;;5023566;28;20398;-54
2023/03/27 10:03:58;;;;;;;9.40;2.17;;;4.90;56.70;;;;;;5024710;28;20435;-54
2023/03/27 10:06:29;;;;;;;4.70;2.60;;;5.00;57.10;;;;;;5033405;28;21021;-53
2023/03/27 10:08:59;;;;;;;7.73;2.30;;;5.00;57.30;;;;;;5026790;28;20422;-53
2023/03/27 10:11:29;;;;;;;7.00;2.97;;;5.00;56.40;;;;;;5031279;28;20446;-55
2023/03/27 10:13:58;;;;;;;7.10;2.60;;;4.90;55.30;;;;;;5026957;28;20791;-54
2023/03/27 10:16:24;;;;;;;4.13;2.50;;;5.00;56.30;;;;;;5027490;28;20444;-54
2023/03/27 10:18:54;;;;;;;5.40;2.77;;;5.20;57.10;;;;;;5028845;28;20491;-54
2023/03/27 10:21:32;;;;;;;9.97;3.27;;;5.40;56.40;;;;;;5030846;28;20490;-54
2023/03/27 10:24:16;;;;;;;4.67;2.40;;;5.50;56.80;;;;;;5027965;28;20434;-55
2023/03/27 10:26:43;;;;;;;5.13;2.17;;;5.60;54.70;;;;;;5021380;28;20438;-56
2023/03/27 10:29:23;;;;;;;4.67;2.57;;;5.50;54.60;;;;;;5021917;28;20521;-54
2023/03/27 10:31:51;;;;;;;10.10;2.47;;;5.50;53.60;;;;;;5033128;28;21041;-54
2023/03/27 10:34:51;;;;;;;2.13;1.70;;;5.60;55.10;;;;;;5028937;28;20727;-54
2023/03/27 10:37:28;;;;;;;6.43;2.30;;;5.90;55.30;;;;;;5028947;28;21009;-55
2023/03/27 10:39:57;;;;;;;8.53;2.33;;;6.10;51.60;;;;;;5029661;28;20521;-54
2023/03/27 10:42:26;;;;;;;6.23;2.33;;;6.20;52.30;;;;;;5030020;28;20451;-56
2023/03/27 10:44:55;;;;;;;6.87;2.43;;;6.00;50.10;;;;;;5032797;28;20529;-55
2023/03/27 10:47:28;;;;;;;5.77;2.50;;;5.80;50.60;;;;;;5031058;28;20422;-52
2023/03/27 10:50:29;;;;;;;5.07;2.30;;;5.80;51.00;;;;;;5031486;28;20460;-52
2023/03/27 10:53:15;;;;;;;5.13;2.37;;;6.10;53.00;;;;;;5034837;28;20521;-53
2023/03/27 10:56:01;;;;;;;4.43;2.13;;;6.30;53.00;;;;;;5029495;28;20450;-56
2023/03/27 10:58:43;;;;;;;7.40;2.13;;;6.30;52.10;;;;;;5029312;28;20440;-54
2023/03/27 11:01:23;;;;;;;3.77;2.00;;;6.20;51.40;;;;;;5025464;28;20486;-57
2023/03/27 11:04:07;;;;;;;5.03;2.00;;;6.00;50.40;;;;;;5031591;28;20422;-57
2023/03/27 11:06:38;;;;;;;4.10;1.80;;;5.70;49.70;;;;;;5033450;28;20978;-57
2023/03/27 11:09:23;;;;;;;6.30;2.03;;;5.50;50.10;;;;;;5025661;28;20426;-56
2023/03/27 11:12:00;;;;;;;10.77;2.00;;;5.20;50.30;;;;;;5027352;28;20422;-57
2023/03/27 11:14:51;;;;;;;3.90;1.80;;;5.20;51.30;;;;;;5029363;28;20426;-55
2023/03/27 11:17:22;;;;;;;5.60;2.07;;;5.60;52.70;;;;;;5029303;28;20638;-55
2023/03/27 11:19:54;;;;;;;5.53;2.17;;;5.90;51.30;;;;;;5033189;28;20464;-55
2023/03/27 11:22:32;;;;;;;4.63;1.77;;;6.30;49.60;;;;;;5027123;28;20461;-56
2023/03/27 11:25:21;;;;;;;5.50;1.80;;;6.60;49.20;;;;;;5024194;28;20453;-55
2023/03/27 11:28:02;;;;;;;3.50;2.00;;;6.50;47.20;;;;;;5029143;28;20422;-51
2023/03/27 11:30:57;;;;;;;1.97;1.67;;;6.30;47.70;;;;;;5020712;28;20488;-54
2023/03/27 11:33:35;;;;;;;7.30;2.40;;;6.00;47.00;;;;;;5026918;28;20488;-56
2023/03/27 11:36:25;;;;;;;2.57;2.17;;;5.80;47.30;;;;;;5020385;28;20461;-57
2023/03/27 11:39:14;;;;;;;2.87;1.70;;;6.00;47.80;;;;;;5020730;28;20508;-53
2023/03/27 11:41:41;;;;;;;3.77;1.83;;;6.40;48.50;;;;;;5028625;28;20461;-56
2023/03/27 11:44:09;;;;;;;1.90;1.60;;;7.00;49.30;;;;;;5018208;28;20467;-57
2023/03/27 11:47:00;;;;;;;5.90;2.33;;;7.60;47.80;;;;;;5028567;28;20995;-58
2023/03/27 11:49:45;;;;;;;3.87;1.60;;;8.00;44.70;;;;;;5033520;28;20407;-58
2023/03/27 11:52:17;;;;;;;1.30;1.20;;;8.40;45.00;;;;;;5033472;28;20413;-57
2023/03/27 11:54:52;;;;;;;4.60;1.70;;;8.60;44.90;;;;;;5035715;28;20546;-57
2023/03/27 11:57:23;;;;;;;3.43;1.50;;;8.50;43.60;;;;;;5029357;28;20977;-55
2023/03/27 12:00:20;;;;;;;3.47;1.33;;;8.10;43.10;;;;;;5029465;28;20497;-54
2023/03/27 12:03:02;;;;;;;3.97;1.93;;;7.80;42.50;;;;;;5027363;28;20462;-54
2023/03/27 12:05:42;;;;;;;3.47;1.70;;;7.90;44.10;;;;;;5031716;28;20449;-55
2023/03/27 12:08:23;;;;;;;3.27;1.67;;;8.30;43.60;;;;;;5028209;28;20430;-58
2023/03/27 12:10:51;;;;;;;5.50;1.90;;;8.80;44.20;;;;;;5026237;28;20429;-55
2023/03/27 12:13:47;;;;;;;7.47;1.80;;;9.30;44.00;;;;;;5033288;28;20427;-55
2023/03/27 12:16:46;;;;;;;4.50;1.83;;;9.40;41.20;;;;;;5021248;28;20431;-55
2023/03/27 12:19:16;;;;;;;8.33;2.03;;;9.30;40.30;;;;;;5022572;28;20484;-57
2023/03/27 12:22:11;;;;;;;9.20;2.07;;;8.80;40.10;;;;;;5019229;28;20461;-55
2023/03/27 12:24:58;;;;;;;5.40;1.77;;;8.30;41.60;;;;;;5027412;28;21205;-53
2023/03/27 12:27:39;;;;;;;6.20;1.70;;;7.80;42.20;;;;;;5028804;28;21089;-55
2023/03/27 12:30:38;;;;;;;3.43;1.70;;;7.40;42.20;;;;;;5029471;28;20449;-56
2023/03/27 12:33:10;;;;;;;4.77;1.80;;;7.00;42.30;;;;;;5030650;28;20555;-55
2023/03/27 12:35:44;;;;;;;1.70;1.40;;;6.70;43.00;;;;;;5025697;28;21008;-53
2023/03/27 12:38:21;;;;;;;5.07;1.83;;;6.50;43.20;;;;;;5023431;28;20603;-54
2023/03/27 12:41:01;;;;;;;3.20;1.53;;;6.50;43.00;;;;;;5023755;28;20430;-54
2023/03/27 12:43:38;;;;;;;1.60;1.43;;;6.50;42.60;;;;;;5030442;28;20426;-55
2023/03/27 12:46:22;;;;;;;3.70;1.50;;;6.70;43.70;;;;;;5025125;28;20461;-55
2023/03/27 12:48:54;;;;;;;2.00;1.30;;;6.90;42.50;;;;;;5023417;28;20430;-54
2023/03/27 12:51:41;;;;;;;2.20;1.50;;;6.90;41.60;;;;;;5019709;28;20434;-55
2023/03/27 12:54:28;;;;;;;1.90;1.30;;;6.80;42.00;;;;;;5026511;28;20430;-52
2023/03/27 12:57:04;;;;;;;7.83;1.87;;;6.70;42.70;;;;;;5028159;28;20438;-54
2023/03/27 12:59:38;;;;;;;3.87;2.67;;;6.60;42.70;;;;;;5023774;28;20485;-54
2023/03/27 13:02:07;;;;;;;1.50;1.20;;;6.50;42.00;;;;;;5023073;28;20493;-54
2023/03/27 13:05:09;;;;;;;4.23;1.73;;;6.40;39.30;;;;;;5025161;28;20525;-55
2023/03/27 13:08:02;;;;;;;3.37;1.63;;;6.20;38.70;;;;;;5022760;28;20938;-54
2023/03/27 13:10:52;;;;;;;6.87;1.93;;;6.00;38.60;;;;;;5024262;28;20431;-52
2023/03/27 13:13:17;;;;;;;4.47;1.37;;;5.90;38.20;;;;;;5023311;28;20437;-54
2023/03/27 13:15:56;;;;;;;4.40;2.37;;;5.80;38.40;;;;;;5020280;28;20426;-53
2023/03/27 13:18:40;;;;;;;3.80;1.53;;;5.70;39.50;;;;;;5022215;28;20175;-54
2023/03/27 13:21:31;;;;;;;3.80;1.67;;;5.60;41.20;;;;;;5022550;28;20496;-53
2023/03/27 13:24:38;;;;;;;4.83;1.80;;;5.60;42.30;;;;;;5019947;28;20853;-52